sensor_id;sensor_type;location;lat;lon;timestamp;P1;durP1;ratioP1;P2;durP2;ratioP2
75007;SDS011;63554;48.940;12.050;2022-11-15T00:02:36;6.25;;;5.75;;
75007;SDS011;63554;48.940;12.050;2022-11-15T00:06:39;6.10;;;5.70;;
75007;SDS011;63554;48.940;12.050;2022-11-15T00:10:42;8.55;;;7.18;;
75007;SDS011;63554;48.940;12.050;2022-11-15T00:14:46;7.07;;;6.00;;
75007;SDS011;63554;48.940;12.050;2022-11-15T00:18:49;7.75;;;6.15;;
75007;SDS011;63554;48.940;12.050;2022-11-15T00:22:52;8.00;;;7.28;;
75007;SDS011;63554;48.940;12.050;2022-11-15T00:26:55;6.63;;;5.93;;
75007;SDS011;63554;48.940;12.050;2022-11-15T00:31:02;9.60;;;5.75;;
75007;SDS011;63554;48.940;12.050;2022-11-15T00:35:06;7.38;;;6.53;;
75007;SDS011;63554;48.940;12.050;2022-11-15T00:39:09;7.15;;;4.15;;
75007;SDS011;63554;48.940;12.050;2022-11-15T00:43:12;6.95;;;6.32;;
75007;SDS011;63554;48.940;12.050;2022-11-15T00:47:16;7.63;;;6.90;;
75007;SDS011;63554;48.940;12.050;2022-11-15T00:51:19;5.68;;;5.10;;
75007;SDS011;63554;48.940;12.050;2022-11-15T00:55:21;6.82;;;6.18;;
75007;SDS011;63554;48.940;12.050;2022-11-15T00:59:24;9.57;;;6.95;;
75007;SDS011;63554;48.940;12.050;2022-11-15T01:03:29;6.22;;;5.68;;
75007;SDS011;63554;48.940;12.050;2022-11-15T01:07:35;6.88;;;6.22;;
75007;SDS011;63554;48.940;12.050;2022-11-15T01:11:38;4.82;;;3.78;;
75007;SDS011;63554;48.940;12.050;2022-11-15T01:15:40;8.10;;;6.93;;
75007;SDS011;63554;48.940;12.050;2022-11-15T01:19:44;6.03;;;5.53;;
75007;SDS011;63554;48.940;12.050;2022-11-15T01:23:47;6.50;;;6.03;;
75007;SDS011;63554;48.940;12.050;2022-11-15T01:27:50;7.85;;;7.13;;
75007;SDS011;63554;48.940;12.050;2022-11-15T01:31:52;5.65;;;5.20;;
75007;SDS011;63554;48.940;12.050;2022-11-15T01:35:57;6.60;;;6.07;;
75007;SDS011;63554;48.940;12.050;2022-11-15T01:40:00;7.38;;;5.68;;
75007;SDS011;63554;48.940;12.050;2022-11-15T01:48:40;5.45;;;4.97;;
75007;SDS011;63554;48.940;12.050;2022-11-15T01:52:44;6.55;;;5.95;;
75007;SDS011;63554;48.940;12.050;2022-11-15T01:56:47;5.90;;;5.35;;
75007;SDS011;63554;48.940;12.050;2022-11-15T02:00:54;6.95;;;5.70;;
75007;SDS011;63554;48.940;12.050;2022-11-15T02:04:57;11.90;;;6.25;;
75007;SDS011;63554;48.940;12.050;2022-11-15T02:09:01;6.70;;;6.30;;
75007;SDS011;63554;48.940;12.050;2022-11-15T02:13:04;6.10;;;5.63;;
75007;SDS011;63554;48.940;12.050;2022-11-15T02:17:11;5.65;;;5.18;;
75007;SDS011;63554;48.940;12.050;2022-11-15T02:21:27;6.75;;;4.75;;
75007;SDS011;63554;48.940;12.050;2022-11-15T02:25:40;6.88;;;6.15;;
75007;SDS011;63554;48.940;12.050;2022-11-15T02:34:25;6.85;;;6.35;;
75007;SDS011;63554;48.940;12.050;2022-11-15T02:38:32;4.95;;;4.53;;
75007;SDS011;63554;48.940;12.050;2022-11-15T02:42:43;4.20;;;3.83;;
75007;SDS011;63554;48.940;12.050;2022-11-15T02:47:11;5.07;;;4.50;;
75007;SDS011;63554;48.940;12.050;2022-11-15T02:51:17;7.60;;;7.10;;
75007;SDS011;63554;48.940;12.050;2022-11-15T02:55:28;6.75;;;5.93;;
75007;SDS011;63554;48.940;12.050;2022-11-15T02:59:39;4.95;;;4.68;;
75007;SDS011;63554;48.940;12.050;2022-11-15T03:03:59;9.23;;;6.15;;
75007;SDS011;63554;48.940;12.050;2022-11-15T03:08:06;5.70;;;5.20;;
75007;SDS011;63554;48.940;12.050;2022-11-15T03:12:14;7.70;;;7.20;;
75007;SDS011;63554;48.940;12.050;2022-11-15T03:16:25;5.78;;;5.38;;
75007;SDS011;63554;48.940;12.050;2022-11-15T03:20:34;6.03;;;5.60;;
75007;SDS011;63554;48.940;12.050;2022-11-15T03:24:38;6.00;;;5.50;;
75007;SDS011;63554;48.940;12.050;2022-11-15T03:28:43;6.65;;;6.05;;
75007;SDS011;63554;48.940;12.050;2022-11-15T03:32:51;5.22;;;4.82;;
75007;SDS011;63554;48.940;12.050;2022-11-15T03:36:58;5.25;;;4.90;;
75007;SDS011;63554;48.940;12.050;2022-11-15T03:41:01;5.88;;;5.05;;
75007;SDS011;63554;48.940;12.050;2022-11-15T03:45:10;6.88;;;6.18;;
75007;SDS011;63554;48.940;12.050;2022-11-15T03:49:19;5.38;;;4.97;;
75007;SDS011;63554;48.940;12.050;2022-11-15T03:53:27;5.45;;;5.05;;
75007;SDS011;63554;48.940;12.050;2022-11-15T03:57:32;5.63;;;5.22;;
75007;SDS011;63554;48.940;12.050;2022-11-15T04:01:35;6.88;;;5.68;;
75007;SDS011;63554;48.940;12.050;2022-11-15T04:05:37;5.22;;;4.82;;
75007;SDS011;63554;48.940;12.050;2022-11-15T04:09:41;4.72;;;4.32;;
75007;SDS011;63554;48.940;12.050;2022-11-15T04:13:58;6.80;;;6.20;;
75007;SDS011;63554;48.940;12.050;2022-11-15T04:18:01;6.07;;;5.65;;
75007;SDS011;63554;48.940;12.050;2022-11-15T04:22:04;6.97;;;5.75;;
75007;SDS011;63554;48.940;12.050;2022-11-15T04:26:25;5.30;;;4.80;;
75007;SDS011;63554;48.940;12.050;2022-11-15T04:30:28;6.80;;;4.18;;
75007;SDS011;63554;48.940;12.050;2022-11-15T04:34:31;5.43;;;5.07;;
75007;SDS011;63554;48.940;12.050;2022-11-15T04:38:35;5.53;;;5.13;;
75007;SDS011;63554;48.940;12.050;2022-11-15T04:42:41;5.03;;;4.72;;
75007;SDS011;63554;48.940;12.050;2022-11-15T04:46:44;5.05;;;3.70;;
75007;SDS011;63554;48.940;12.050;2022-11-15T04:50:47;6.88;;;6.28;;
75007;SDS011;63554;48.940;12.050;2022-11-15T04:54:50;7.95;;;3.67;;
75007;SDS011;63554;48.940;12.050;2022-11-15T04:58:54;3.97;;;3.63;;
75007;SDS011;63554;48.940;12.050;2022-11-15T05:02:57;5.43;;;3.47;;
75007;SDS011;63554;48.940;12.050;2022-11-15T05:07:17;4.40;;;4.13;;
75007;SDS011;63554;48.940;12.050;2022-11-15T05:11:20;5.18;;;4.88;;
75007;SDS011;63554;48.940;12.050;2022-11-15T05:15:24;5.63;;;5.18;;
75007;SDS011;63554;48.940;12.050;2022-11-15T05:19:27;5.05;;;4.75;;
75007;SDS011;63554;48.940;12.050;2022-11-15T05:23:29;5.78;;;5.28;;
75007;SDS011;63554;48.940;12.050;2022-11-15T05:27:33;5.18;;;4.78;;
75007;SDS011;63554;48.940;12.050;2022-11-15T05:31:39;4.32;;;4.13;;
75007;SDS011;63554;48.940;12.050;2022-11-15T05:39:51;1.58;;;1.48;;
75007;SDS011;63554;48.940;12.050;2022-11-15T05:43:54;8.75;;;4.90;;
75007;SDS011;63554;48.940;12.050;2022-11-15T05:47:58;5.15;;;4.80;;
75007;SDS011;63554;48.940;12.050;2022-11-15T05:52:03;4.95;;;4.47;;
75007;SDS011;63554;48.940;12.050;2022-11-15T05:56:09;4.75;;;4.40;;
75007;SDS011;63554;48.940;12.050;2022-11-15T06:00:13;5.32;;;4.88;;
75007;SDS011;63554;48.940;12.050;2022-11-15T06:04:17;4.93;;;4.45;;
75007;SDS011;63554;48.940;12.050;2022-11-15T06:08:20;4.82;;;2.67;;
75007;SDS011;63554;48.940;12.050;2022-11-15T06:12:23;5.75;;;4.90;;
75007;SDS011;63554;48.940;12.050;2022-11-15T06:16:25;5.25;;;4.80;;
75007;SDS011;63554;48.940;12.050;2022-11-15T06:20:30;4.85;;;4.65;;
75007;SDS011;63554;48.940;12.050;2022-11-15T06:24:32;3.95;;;3.63;;
75007;SDS011;63554;48.940;12.050;2022-11-15T06:28:35;5.30;;;2.85;;
75007;SDS011;63554;48.940;12.050;2022-11-15T06:32:38;5.00;;;4.70;;
75007;SDS011;63554;48.940;12.050;2022-11-15T06:36:42;4.93;;;4.43;;
75007;SDS011;63554;48.940;12.050;2022-11-15T06:40:44;3.00;;;2.80;;
75007;SDS011;63554;48.940;12.050;2022-11-15T06:44:47;6.00;;;5.53;;
75007;SDS011;63554;48.940;12.050;2022-11-15T06:48:50;4.40;;;3.30;;
75007;SDS011;63554;48.940;12.050;2022-11-15T06:52:54;6.78;;;2.42;;
75007;SDS011;63554;48.940;12.050;2022-11-15T06:56:57;5.80;;;4.05;;
75007;SDS011;63554;48.940;12.050;2022-11-15T07:01:00;5.47;;;5.07;;
75007;SDS011;63554;48.940;12.050;2022-11-15T07:05:04;5.55;;;3.83;;
75007;SDS011;63554;48.940;12.050;2022-11-15T07:09:08;6.78;;;3.88;;
75007;SDS011;63554;48.940;12.050;2022-11-15T07:13:11;4.63;;;4.32;;
75007;SDS011;63554;48.940;12.050;2022-11-15T07:17:14;2.08;;;1.98;;
75007;SDS011;63554;48.940;12.050;2022-11-15T07:21:16;4.38;;;4.18;;
75007;SDS011;63554;48.940;12.050;2022-11-15T07:25:27;4.63;;;4.22;;
75007;SDS011;63554;48.940;12.050;2022-11-15T07:29:30;6.60;;;5.82;;
75007;SDS011;63554;48.940;12.050;2022-11-15T07:33:33;6.13;;;4.75;;
75007;SDS011;63554;48.940;12.050;2022-11-15T07:37:36;7.47;;;3.35;;
75007;SDS011;63554;48.940;12.050;2022-11-15T07:41:40;5.82;;;5.35;;
75007;SDS011;63554;48.940;12.050;2022-11-15T07:45:44;3.63;;;2.70;;
75007;SDS011;63554;48.940;12.050;2022-11-15T07:49:47;5.72;;;5.18;;
75007;SDS011;63554;48.940;12.050;2022-11-15T07:53:50;4.25;;;3.95;;
75007;SDS011;63554;48.940;12.050;2022-11-15T07:57:59;6.68;;;4.72;;
75007;SDS011;63554;48.940;12.050;2022-11-15T08:02:02;4.65;;;4.35;;
75007;SDS011;63554;48.940;12.050;2022-11-15T08:06:05;9.73;;;6.38;;
75007;SDS011;63554;48.940;12.050;2022-11-15T08:10:08;10.38;;;7.32;;
75007;SDS011;63554;48.940;12.050;2022-11-15T08:14:16;5.80;;;5.35;;
75007;SDS011;63554;48.940;12.050;2022-11-15T08:18:19;7.25;;;5.30;;
75007;SDS011;63554;48.940;12.050;2022-11-15T08:22:21;10.25;;;6.50;;
75007;SDS011;63554;48.940;12.050;2022-11-15T08:26:24;5.45;;;4.95;;
75007;SDS011;63554;48.940;12.050;2022-11-15T08:30:33;5.90;;;5.20;;
75007;SDS011;63554;48.940;12.050;2022-11-15T08:34:38;9.20;;;4.45;;
75007;SDS011;63554;48.940;12.050;2022-11-15T08:38:41;5.18;;;4.47;;
75007;SDS011;63554;48.940;12.050;2022-11-15T08:42:45;9.57;;;5.13;;
75007;SDS011;63554;48.940;12.050;2022-11-15T08:46:49;5.65;;;5.15;;
75007;SDS011;63554;48.940;12.050;2022-11-15T08:50:53;5.88;;;5.40;;
75007;SDS011;63554;48.940;12.050;2022-11-15T08:54:56;4.20;;;3.90;;
75007;SDS011;63554;48.940;12.050;2022-11-15T08:58:59;4.20;;;3.80;;
75007;SDS011;63554;48.940;12.050;2022-11-15T09:03:04;5.47;;;4.50;;
75007;SDS011;63554;48.940;12.050;2022-11-15T09:07:08;4.57;;;4.28;;
75007;SDS011;63554;48.940;12.050;2022-11-15T09:11:10;5.60;;;4.35;;
75007;SDS011;63554;48.940;12.050;2022-11-15T09:15:15;4.80;;;4.38;;
75007;SDS011;63554;48.940;12.050;2022-11-15T09:19:20;4.32;;;4.00;;
75007;SDS011;63554;48.940;12.050;2022-11-15T09:23:23;4.45;;;3.70;;
75007;SDS011;63554;48.940;12.050;2022-11-15T09:27:27;4.15;;;3.72;;
75007;SDS011;63554;48.940;12.050;2022-11-15T09:31:30;4.35;;;4.03;;
75007;SDS011;63554;48.940;12.050;2022-11-15T09:35:34;5.13;;;4.57;;
75007;SDS011;63554;48.940;12.050;2022-11-15T09:39:38;4.45;;;4.03;;
75007;SDS011;63554;48.940;12.050;2022-11-15T09:43:42;7.25;;;5.05;;
75007;SDS011;63554;48.940;12.050;2022-11-15T09:52:41;6.70;;;4.63;;
75007;SDS011;63554;48.940;12.050;2022-11-15T09:56:46;3.67;;;3.00;;
75007;SDS011;63554;48.940;12.050;2022-11-15T10:00:50;5.05;;;3.33;;
75007;SDS011;63554;48.940;12.050;2022-11-15T10:04:56;4.35;;;3.03;;
75007;SDS011;63554;48.940;12.050;2022-11-15T10:09:03;4.75;;;4.22;;
75007;SDS011;63554;48.940;12.050;2022-11-15T10:13:22;4.70;;;3.35;;
75007;SDS011;63554;48.940;12.050;2022-11-15T10:17:31;5.00;;;4.07;;
75007;SDS011;63554;48.940;12.050;2022-11-15T10:21:54;9.75;;;4.43;;
75007;SDS011;63554;48.940;12.050;2022-11-15T10:26:15;5.32;;;3.67;;
75007;SDS011;63554;48.940;12.050;2022-11-15T10:30:19;6.25;;;4.03;;
75007;SDS011;63554;48.940;12.050;2022-11-15T10:34:23;6.35;;;3.30;;
75007;SDS011;63554;48.940;12.050;2022-11-15T10:38:26;5.45;;;3.38;;
75007;SDS011;63554;48.940;12.050;2022-11-15T10:42:30;5.55;;;3.58;;
75007;SDS011;63554;48.940;12.050;2022-11-15T10:46:33;5.57;;;4.30;;
75007;SDS011;63554;48.940;12.050;2022-11-15T10:50:48;4.60;;;2.95;;
75007;SDS011;63554;48.940;12.050;2022-11-15T10:54:53;6.60;;;3.95;;
75007;SDS011;63554;48.940;12.050;2022-11-15T10:59:00;5.10;;;3.05;;
75007;SDS011;63554;48.940;12.050;2022-11-15T11:03:04;4.90;;;3.30;;
75007;SDS011;63554;48.940;12.050;2022-11-15T11:07:19;6.35;;;3.63;;
75007;SDS011;63554;48.940;12.050;2022-11-15T11:11:24;6.93;;;3.78;;
75007;SDS011;63554;48.940;12.050;2022-11-15T11:15:29;6.88;;;4.00;;
75007;SDS011;63554;48.940;12.050;2022-11-15T11:19:38;6.18;;;3.75;;
75007;SDS011;63554;48.940;12.050;2022-11-15T11:23:58;5.90;;;3.85;;
75007;SDS011;63554;48.940;12.050;2022-11-15T11:28:10;5.57;;;3.72;;
75007;SDS011;63554;48.940;12.050;2022-11-15T11:32:31;5.40;;;3.67;;
75007;SDS011;63554;48.940;12.050;2022-11-15T11:36:44;5.68;;;3.78;;
75007;SDS011;63554;48.940;12.050;2022-11-15T11:40:55;7.80;;;4.40;;
75007;SDS011;63554;48.940;12.050;2022-11-15T11:45:10;5.88;;;3.70;;
75007;SDS011;63554;48.940;12.050;2022-11-15T11:49:23;8.07;;;4.43;;
75007;SDS011;63554;48.940;12.050;2022-11-15T11:53:34;7.00;;;4.28;;
75007;SDS011;63554;48.940;12.050;2022-11-15T11:57:44;7.03;;;3.75;;
75007;SDS011;63554;48.940;12.050;2022-11-15T12:01:53;8.40;;;4.35;;
75007;SDS011;63554;48.940;12.050;2022-11-15T12:05:59;9.15;;;4.38;;
75007;SDS011;63554;48.940;12.050;2022-11-15T12:10:11;5.63;;;4.00;;
75007;SDS011;63554;48.940;12.050;2022-11-15T12:14:22;7.03;;;4.20;;
75007;SDS011;63554;48.940;12.050;2022-11-15T12:18:29;6.20;;;4.22;;
75007;SDS011;63554;48.940;12.050;2022-11-15T12:22:36;7.38;;;4.25;;
75007;SDS011;63554;48.940;12.050;2022-11-15T12:26:46;11.50;;;5.82;;
75007;SDS011;63554;48.940;12.050;2022-11-15T12:30:54;8.13;;;4.00;;
75007;SDS011;63554;48.940;12.050;2022-11-15T12:35:03;8.18;;;4.20;;
75007;SDS011;63554;48.940;12.050;2022-11-15T12:39:09;7.68;;;3.92;;
75007;SDS011;63554;48.940;12.050;2022-11-15T12:47:31;6.32;;;3.22;;
75007;SDS011;63554;48.940;12.050;2022-11-15T12:56:17;6.22;;;3.25;;
75007;SDS011;63554;48.940;12.050;2022-11-15T13:04:50;7.57;;;3.80;;
75007;SDS011;63554;48.940;12.050;2022-11-15T13:08:54;6.10;;;3.75;;
75007;SDS011;63554;48.940;12.050;2022-11-15T13:12:58;7.60;;;4.07;;
75007;SDS011;63554;48.940;12.050;2022-11-15T13:21:28;5.03;;;3.67;;
75007;SDS011;63554;48.940;12.050;2022-11-15T13:30:19;6.00;;;3.20;;
75007;SDS011;63554;48.940;12.050;2022-11-15T13:34:30;7.93;;;4.38;;
75007;SDS011;63554;48.940;12.050;2022-11-15T13:38:54;6.20;;;3.67;;
75007;SDS011;63554;48.940;12.050;2022-11-15T13:42:59;22.17;;;10.85;;
75007;SDS011;63554;48.940;12.050;2022-11-15T13:47:04;5.65;;;4.10;;
75007;SDS011;63554;48.940;12.050;2022-11-15T13:51:09;7.43;;;3.53;;
75007;SDS011;63554;48.940;12.050;2022-11-15T13:55:18;6.25;;;3.35;;
75007;SDS011;63554;48.940;12.050;2022-11-15T13:59:24;6.63;;;3.10;;
75007;SDS011;63554;48.940;12.050;2022-11-15T14:03:30;7.25;;;3.58;;
75007;SDS011;63554;48.940;12.050;2022-11-15T14:07:35;5.68;;;3.67;;
75007;SDS011;63554;48.940;12.050;2022-11-15T14:11:54;6.25;;;3.22;;
75007;SDS011;63554;48.940;12.050;2022-11-15T14:16:15;8.00;;;3.40;;
75007;SDS011;63554;48.940;12.050;2022-11-15T14:20:27;5.68;;;3.38;;
75007;SDS011;63554;48.940;12.050;2022-11-15T14:24:39;6.43;;;3.30;;
75007;SDS011;63554;48.940;12.050;2022-11-15T14:28:42;5.82;;;3.63;;
75007;SDS011;63554;48.940;12.050;2022-11-15T14:32:46;6.03;;;3.72;;
75007;SDS011;63554;48.940;12.050;2022-11-15T14:36:52;5.38;;;2.95;;
75007;SDS011;63554;48.940;12.050;2022-11-15T14:41:00;4.65;;;2.80;;
75007;SDS011;63554;48.940;12.050;2022-11-15T14:45:04;4.15;;;2.97;;
75007;SDS011;63554;48.940;12.050;2022-11-15T14:49:18;6.13;;;3.35;;
75007;SDS011;63554;48.940;12.050;2022-11-15T14:53:22;5.80;;;3.35;;
75007;SDS011;63554;48.940;12.050;2022-11-15T14:57:25;5.30;;;3.13;;
75007;SDS011;63554;48.940;12.050;2022-11-15T15:01:28;6.28;;;3.45;;
75007;SDS011;63554;48.940;12.050;2022-11-15T15:05:31;4.88;;;2.85;;
75007;SDS011;63554;48.940;12.050;2022-11-15T15:09:37;4.18;;;2.70;;
75007;SDS011;63554;48.940;12.050;2022-11-15T15:13:40;10.13;;;2.80;;
75007;SDS011;63554;48.940;12.050;2022-11-15T15:17:43;9.10;;;4.90;;
75007;SDS011;63554;48.940;12.050;2022-11-15T15:21:46;8.10;;;3.58;;
75007;SDS011;63554;48.940;12.050;2022-11-15T15:25:50;6.07;;;3.80;;
75007;SDS011;63554;48.940;12.050;2022-11-15T15:29:53;5.07;;;3.28;;
75007;SDS011;63554;48.940;12.050;2022-11-15T15:33:56;5.97;;;4.07;;
75007;SDS011;63554;48.940;12.050;2022-11-15T15:38:00;6.90;;;4.00;;
75007;SDS011;63554;48.940;12.050;2022-11-15T15:42:05;5.95;;;3.88;;
75007;SDS011;63554;48.940;12.050;2022-11-15T15:46:09;7.00;;;3.80;;
75007;SDS011;63554;48.940;12.050;2022-11-15T15:50:16;27.73;;;13.18;;
75007;SDS011;63554;48.940;12.050;2022-11-15T15:54:23;6.90;;;4.50;;
75007;SDS011;63554;48.940;12.050;2022-11-15T15:58:27;5.38;;;4.03;;
75007;SDS011;63554;48.940;12.050;2022-11-15T16:02:31;5.25;;;3.47;;
75007;SDS011;63554;48.940;12.050;2022-11-15T16:06:40;6.35;;;5.07;;
75007;SDS011;63554;48.940;12.050;2022-11-15T16:10:45;5.18;;;4.00;;
75007;SDS011;63554;48.940;12.050;2022-11-15T16:14:50;8.02;;;5.10;;
75007;SDS011;63554;48.940;12.050;2022-11-15T16:18:56;8.23;;;4.70;;
75007;SDS011;63554;48.940;12.050;2022-11-15T16:22:59;9.45;;;4.38;;
75007;SDS011;63554;48.940;12.050;2022-11-15T16:27:10;7.57;;;3.92;;
75007;SDS011;63554;48.940;12.050;2022-11-15T16:31:17;6.00;;;4.10;;
75007;SDS011;63554;48.940;12.050;2022-11-15T16:35:21;6.25;;;4.35;;
75007;SDS011;63554;48.940;12.050;2022-11-15T16:39:24;42.53;;;14.85;;
75007;SDS011;63554;48.940;12.050;2022-11-15T16:43:29;31.52;;;12.70;;
75007;SDS011;63554;48.940;12.050;2022-11-15T16:47:33;5.57;;;3.85;;
75007;SDS011;63554;48.940;12.050;2022-11-15T16:51:35;6.68;;;4.03;;
75007;SDS011;63554;48.940;12.050;2022-11-15T16:55:39;4.88;;;3.75;;
75007;SDS011;63554;48.940;12.050;2022-11-15T16:59:42;6.57;;;3.97;;
75007;SDS011;63554;48.940;12.050;2022-11-15T17:03:46;6.47;;;5.70;;
75007;SDS011;63554;48.940;12.050;2022-11-15T17:07:49;6.15;;;4.10;;
75007;SDS011;63554;48.940;12.050;2022-11-15T17:11:54;9.55;;;4.40;;
75007;SDS011;63554;48.940;12.050;2022-11-15T17:16:02;5.95;;;5.18;;
75007;SDS011;63554;48.940;12.050;2022-11-15T17:20:08;4.45;;;3.53;;
75007;SDS011;63554;48.940;12.050;2022-11-15T17:24:15;13.13;;;7.22;;
75007;SDS011;63554;48.940;12.050;2022-11-15T17:28:21;15.48;;;9.45;;
75007;SDS011;63554;48.940;12.050;2022-11-15T17:32:23;15.15;;;12.20;;
75007;SDS011;63554;48.940;12.050;2022-11-15T17:36:27;16.38;;;11.57;;
75007;SDS011;63554;48.940;12.050;2022-11-15T17:40:31;13.73;;;9.50;;
75007;SDS011;63554;48.940;12.050;2022-11-15T17:44:33;11.93;;;8.98;;
75007;SDS011;63554;48.940;12.050;2022-11-15T17:48:36;12.40;;;10.25;;
75007;SDS011;63554;48.940;12.050;2022-11-15T17:52:40;13.48;;;10.40;;
75007;SDS011;63554;48.940;12.050;2022-11-15T17:56:43;12.85;;;9.15;;
75007;SDS011;63554;48.940;12.050;2022-11-15T18:00:46;12.85;;;9.73;;
75007;SDS011;63554;48.940;12.050;2022-11-15T18:04:50;12.48;;;9.82;;
75007;SDS011;63554;48.940;12.050;2022-11-15T18:08:54;14.23;;;8.40;;
75007;SDS011;63554;48.940;12.050;2022-11-15T18:12:57;8.32;;;7.30;;
75007;SDS011;63554;48.940;12.050;2022-11-15T18:17:00;11.60;;;8.70;;
75007;SDS011;63554;48.940;12.050;2022-11-15T18:21:03;8.48;;;7.30;;
75007;SDS011;63554;48.940;12.050;2022-11-15T18:25:09;9.32;;;7.82;;
75007;SDS011;63554;48.940;12.050;2022-11-15T18:29:12;9.57;;;7.07;;
75007;SDS011;63554;48.940;12.050;2022-11-15T18:33:15;9.13;;;8.05;;
75007;SDS011;63554;48.940;12.050;2022-11-15T18:37:19;8.15;;;6.60;;
75007;SDS011;63554;48.940;12.050;2022-11-15T18:41:25;14.45;;;8.05;;
75007;SDS011;63554;48.940;12.050;2022-11-15T18:45:29;8.77;;;7.78;;
75007;SDS011;63554;48.940;12.050;2022-11-15T18:49:32;15.80;;;7.50;;
75007;SDS011;63554;48.940;12.050;2022-11-15T18:53:37;9.75;;;8.40;;
75007;SDS011;63554;48.940;12.050;2022-11-15T18:57:42;8.85;;;7.93;;
75007;SDS011;63554;48.940;12.050;2022-11-15T19:01:45;11.98;;;10.05;;
75007;SDS011;63554;48.940;12.050;2022-11-15T19:05:48;9.65;;;8.52;;
75007;SDS011;63554;48.940;12.050;2022-11-15T19:09:51;12.10;;;9.70;;
75007;SDS011;63554;48.940;12.050;2022-11-15T19:13:56;9.05;;;6.50;;
75007;SDS011;63554;48.940;12.050;2022-11-15T19:18:00;11.10;;;9.93;;
75007;SDS011;63554;48.940;12.050;2022-11-15T19:22:03;15.35;;;10.95;;
75007;SDS011;63554;48.940;12.050;2022-11-15T19:26:07;14.40;;;9.80;;
75007;SDS011;63554;48.940;12.050;2022-11-15T19:30:14;10.15;;;9.18;;
75007;SDS011;63554;48.940;12.050;2022-11-15T19:34:17;11.15;;;9.27;;
75007;SDS011;63554;48.940;12.050;2022-11-15T19:38:20;15.40;;;10.73;;
75007;SDS011;63554;48.940;12.050;2022-11-15T19:42:23;12.02;;;10.45;;
75007;SDS011;63554;48.940;12.050;2022-11-15T19:46:27;9.93;;;8.02;;
75007;SDS011;63554;48.940;12.050;2022-11-15T19:50:30;13.50;;;9.55;;
75007;SDS011;63554;48.940;12.050;2022-11-15T19:54:33;9.10;;;7.85;;
75007;SDS011;63554;48.940;12.050;2022-11-15T19:58:36;12.07;;;9.25;;
75007;SDS011;63554;48.940;12.050;2022-11-15T20:02:40;12.13;;;8.80;;
75007;SDS011;63554;48.940;12.050;2022-11-15T20:06:43;10.02;;;8.02;;
75007;SDS011;63554;48.940;12.050;2022-11-15T20:10:47;8.75;;;6.70;;
75007;SDS011;63554;48.940;12.050;2022-11-15T20:14:50;10.15;;;7.57;;
75007;SDS011;63554;48.940;12.050;2022-11-15T20:18:54;6.80;;;6.10;;
75007;SDS011;63554;48.940;12.050;2022-11-15T20:22:57;9.05;;;6.78;;
75007;SDS011;63554;48.940;12.050;2022-11-15T20:27:03;8.48;;;6.28;;
75007;SDS011;63554;48.940;12.050;2022-11-15T20:31:07;12.38;;;6.82;;
75007;SDS011;63554;48.940;12.050;2022-11-15T20:35:12;5.57;;;4.88;;
75007;SDS011;63554;48.940;12.050;2022-11-15T20:39:15;6.88;;;5.28;;
75007;SDS011;63554;48.940;12.050;2022-11-15T20:43:18;7.15;;;5.32;;
75007;SDS011;63554;48.940;12.050;2022-11-15T20:47:21;6.20;;;5.15;;
75007;SDS011;63554;48.940;12.050;2022-11-15T20:51:31;6.35;;;5.38;;
75007;SDS011;63554;48.940;12.050;2022-11-15T20:55:37;7.82;;;6.22;;
75007;SDS011;63554;48.940;12.050;2022-11-15T21:03:43;7.05;;;6.07;;
75007;SDS011;63554;48.940;12.050;2022-11-15T21:07:48;7.13;;;5.72;;
75007;SDS011;63554;48.940;12.050;2022-11-15T21:11:50;6.38;;;5.72;;
75007;SDS011;63554;48.940;12.050;2022-11-15T21:16:11;8.35;;;6.43;;
75007;SDS011;63554;48.940;12.050;2022-11-15T21:20:13;6.38;;;4.82;;
75007;SDS011;63554;48.940;12.050;2022-11-15T21:24:18;6.82;;;5.80;;
75007;SDS011;63554;48.940;12.050;2022-11-15T21:28:21;7.10;;;6.00;;
75007;SDS011;63554;48.940;12.050;2022-11-15T21:32:24;8.98;;;5.68;;
75007;SDS011;63554;48.940;12.050;2022-11-15T21:36:29;8.50;;;5.25;;
75007;SDS011;63554;48.940;12.050;2022-11-15T21:40:33;8.10;;;6.10;;
75007;SDS011;63554;48.940;12.050;2022-11-15T21:44:36;6.38;;;5.25;;
75007;SDS011;63554;48.940;12.050;2022-11-15T21:48:39;6.82;;;6.07;;
75007;SDS011;63554;48.940;12.050;2022-11-15T21:52:41;7.75;;;5.03;;
75007;SDS011;63554;48.940;12.050;2022-11-15T21:56:45;6.50;;;5.93;;
75007;SDS011;63554;48.940;12.050;2022-11-15T22:00:48;5.25;;;4.20;;
75007;SDS011;63554;48.940;12.050;2022-11-15T22:05:09;6.13;;;5.63;;
75007;SDS011;63554;48.940;12.050;2022-11-15T22:09:11;7.63;;;6.22;;
75007;SDS011;63554;48.940;12.050;2022-11-15T22:13:16;6.05;;;5.32;;
75007;SDS011;63554;48.940;12.050;2022-11-15T22:17:19;8.73;;;5.68;;
75007;SDS011;63554;48.940;12.050;2022-11-15T22:21:22;7.70;;;6.20;;
75007;SDS011;63554;48.940;12.050;2022-11-15T22:25:25;6.40;;;5.60;;
75007;SDS011;63554;48.940;12.050;2022-11-15T22:29:29;8.18;;;6.07;;
75007;SDS011;63554;48.940;12.050;2022-11-15T22:33:32;7.70;;;6.15;;
75007;SDS011;63554;48.940;12.050;2022-11-15T22:37:35;7.05;;;6.45;;
75007;SDS011;63554;48.940;12.050;2022-11-15T22:41:38;7.40;;;6.72;;
75007;SDS011;63554;48.940;12.050;2022-11-15T22:45:46;5.30;;;4.07;;
75007;SDS011;63554;48.940;12.050;2022-11-15T22:49:53;8.10;;;5.88;;
75007;SDS011;63554;48.940;12.050;2022-11-15T22:53:56;7.45;;;6.13;;
75007;SDS011;63554;48.940;12.050;2022-11-15T22:57:59;7.97;;;7.20;;
75007;SDS011;63554;48.940;12.050;2022-11-15T23:02:03;18.40;;;6.15;;
75007;SDS011;63554;48.940;12.050;2022-11-15T23:06:06;7.78;;;5.32;;
75007;SDS011;63554;48.940;12.050;2022-11-15T23:10:10;5.60;;;5.13;;
75007;SDS011;63554;48.940;12.050;2022-11-15T23:14:30;5.43;;;4.97;;
75007;SDS011;63554;48.940;12.050;2022-11-15T23:18:34;5.45;;;4.88;;
75007;SDS011;63554;48.940;12.050;2022-11-15T23:22:38;6.20;;;5.65;;
75007;SDS011;63554;48.940;12.050;2022-11-15T23:26:50;6.22;;;4.03;;
75007;SDS011;63554;48.940;12.050;2022-11-15T23:31:00;6.22;;;5.55;;
75007;SDS011;63554;48.940;12.050;2022-11-15T23:35:22;6.82;;;6.18;;
75007;SDS011;63554;48.940;12.050;2022-11-15T23:39:25;4.55;;;3.70;;
75007;SDS011;63554;48.940;12.050;2022-11-15T23:43:28;5.88;;;5.38;;
75007;SDS011;63554;48.940;12.050;2022-11-15T23:47:31;4.22;;;3.85;;
75007;SDS011;63554;48.940;12.050;2022-11-15T23:51:35;4.97;;;4.65;;
75007;SDS011;63554;48.940;12.050;2022-11-15T23:55:37;6.10;;;4.60;;
75007;SDS011;63554;48.940;12.050;2022-11-15T23:59:41;5.13;;;4.72;;
